createdAt,value
2022-08-30T00:02:21.193Z,5.60
2022-08-30T00:04:48.783Z,5.90
2022-08-30T00:07:16.340Z,6.33
2022-08-30T00:09:43.193Z,6.00
2022-08-30T00:12:10.469Z,6.07
2022-08-30T00:14:37.481Z,5.83
2022-08-30T00:17:04.529Z,5.83
2022-08-30T00:19:31.627Z,5.60
2022-08-30T00:21:58.629Z,6.03
2022-08-30T00:24:25.484Z,6.43
2022-08-30T00:26:52.350Z,5.63
2022-08-30T00:29:19.310Z,6.03
2022-08-30T00:31:46.219Z,5.67
2022-08-30T00:34:13.001Z,6.10
2022-08-30T00:36:39.949Z,5.87
2022-08-30T00:39:06.801Z,6.03
2022-08-30T00:41:33.696Z,6.30
2022-08-30T00:44:01.094Z,6.00
2022-08-30T00:46:28.242Z,5.97
2022-08-30T00:48:56.418Z,5.53
2022-08-30T00:51:24.266Z,6.63
2022-08-30T00:53:57.439Z,5.53
2022-08-30T00:56:25.743Z,5.90
2022-08-30T00:58:57.222Z,5.20
2022-08-30T01:01:25.834Z,5.43
2022-08-30T01:03:53.572Z,5.70
2022-08-30T01:06:20.900Z,5.10
2022-08-30T01:08:48.497Z,5.27
2022-08-30T01:11:21.594Z,5.50
2022-08-30T01:13:50.507Z,5.30
2022-08-30T01:16:17.885Z,5.40
2022-08-30T01:18:45.856Z,5.20
2022-08-30T01:21:27.428Z,5.07
2022-08-30T01:23:57.129Z,5.00
2022-08-30T01:26:25.677Z,5.73
2022-08-30T01:28:56.851Z,5.87
2022-08-30T01:31:24.231Z,5.43
2022-08-30T01:33:51.576Z,6.17
2022-08-30T01:36:20.227Z,5.03
2022-08-30T01:38:51.629Z,5.20
2022-08-30T01:41:25.619Z,5.07
2022-08-30T01:43:55.172Z,5.57
2022-08-30T01:46:24.684Z,5.23
2022-08-30T01:48:54.457Z,5.07
2022-08-30T01:51:24.530Z,5.10
2022-08-30T01:53:51.550Z,5.43
2022-08-30T01:56:19.337Z,5.50
2022-08-30T01:58:46.716Z,5.97
2022-08-30T02:01:15.984Z,5.17
2022-08-30T02:03:44.228Z,5.50
2022-08-30T02:06:14.746Z,5.80
2022-08-30T02:08:42.637Z,5.37
2022-08-30T02:11:10.711Z,5.13
2022-08-30T02:13:38.402Z,5.30
2022-08-30T02:16:06.748Z,5.60
2022-08-30T02:18:35.047Z,5.73
2022-08-30T02:21:02.532Z,5.03
2022-08-30T02:23:29.554Z,5.47
2022-08-30T02:25:56.397Z,5.40
2022-08-30T02:28:23.455Z,5.23
2022-08-30T02:30:52.816Z,5.20
2022-08-30T02:33:20.623Z,5.47
2022-08-30T02:35:47.687Z,5.43
2022-08-30T02:38:15.053Z,5.77
2022-08-30T02:40:42.270Z,5.43
2022-08-30T02:43:09.264Z,4.80
2022-08-30T02:45:36.142Z,5.40
2022-08-30T02:48:03.688Z,5.40
2022-08-30T02:50:31.395Z,5.40
2022-08-30T02:52:58.193Z,5.33
2022-08-30T02:55:25.171Z,5.27
2022-08-30T02:57:51.958Z,5.67
2022-08-30T03:00:20.791Z,5.93
2022-08-30T03:02:48.033Z,5.57
2022-08-30T03:05:16.547Z,5.60
2022-08-30T03:07:44.242Z,4.80
2022-08-30T03:10:11.530Z,5.10
2022-08-30T03:12:41.678Z,4.27
2022-08-30T03:15:13.517Z,5.50
2022-08-30T03:17:40.874Z,5.10
2022-08-30T03:20:09.160Z,5.07
2022-08-30T03:22:36.302Z,4.93
2022-08-30T03:25:04.682Z,5.13
2022-08-30T03:27:31.722Z,6.07
2022-08-30T03:29:58.665Z,5.90
2022-08-30T03:32:25.557Z,4.37
2022-08-30T03:34:52.745Z,5.50
2022-08-30T03:37:23.256Z,5.00
2022-08-30T03:39:52.526Z,5.83
2022-08-30T03:42:20.259Z,6.03
2022-08-30T03:44:48.721Z,5.80
2022-08-30T03:47:16.100Z,5.87
2022-08-30T03:49:43.144Z,5.77
2022-08-30T03:52:10.079Z,6.30
2022-08-30T03:54:37.854Z,5.80
2022-08-30T03:57:05.133Z,5.73
2022-08-30T03:59:32.289Z,5.53
2022-08-30T04:01:59.397Z,5.73
2022-08-30T04:04:26.284Z,5.80
2022-08-30T04:06:53.211Z,6.20
2022-08-30T04:09:20.128Z,6.43
2022-08-30T04:11:47.215Z,5.60
2022-08-30T04:14:14.120Z,5.90
2022-08-30T04:16:41.043Z,5.60
2022-08-30T04:19:08.079Z,6.80
2022-08-30T04:21:35.107Z,5.37
2022-08-30T04:24:09.659Z,6.30
2022-08-30T04:26:36.553Z,6.10
2022-08-30T04:29:03.651Z,6.17
2022-08-30T04:31:31.593Z,6.00
2022-08-30T04:33:58.556Z,5.30
2022-08-30T04:36:25.471Z,5.47
2022-08-30T04:38:52.251Z,5.87
2022-08-30T04:41:20.924Z,5.27
2022-08-30T04:43:51.381Z,5.30
2022-08-30T04:46:19.681Z,4.97
2022-08-30T04:48:47.414Z,5.13
2022-08-30T04:51:17.007Z,5.37
2022-08-30T04:53:44.851Z,5.50
2022-08-30T04:56:20.421Z,5.47
2022-08-30T04:58:48.656Z,5.50
2022-08-30T05:01:23.865Z,5.47
2022-08-30T05:03:52.621Z,6.20
2022-08-30T05:06:20.596Z,6.03
2022-08-30T05:08:47.759Z,6.00
2022-08-30T05:11:16.157Z,5.73
2022-08-30T05:13:44.101Z,6.27
2022-08-30T05:16:13.514Z,6.40
2022-08-30T05:18:40.287Z,6.20
2022-08-30T05:21:13.144Z,6.53
2022-08-30T05:23:41.439Z,5.80
2022-08-30T05:26:22.106Z,5.60
2022-08-30T05:28:52.146Z,6.10
2022-08-30T05:31:23.678Z,5.40
2022-08-30T05:33:52.386Z,6.13
2022-08-30T05:36:22.727Z,6.67
2022-08-30T05:38:50.590Z,6.47
2022-08-30T05:41:20.425Z,6.43
2022-08-30T05:43:47.996Z,6.17
2022-08-30T05:46:19.671Z,7.27
2022-08-30T05:48:47.190Z,6.50
2022-08-30T05:51:20.622Z,7.20
2022-08-30T05:53:49.578Z,6.17
2022-08-30T05:56:19.639Z,6.73
2022-08-30T05:58:46.582Z,5.73
2022-08-30T06:01:22.861Z,6.00
2022-08-30T06:03:50.322Z,6.47
2022-08-30T06:06:17.572Z,7.00
2022-08-30T06:08:48.471Z,7.60
2022-08-30T06:11:18.585Z,6.97
2022-08-30T06:13:46.756Z,7.00
2022-08-30T06:16:16.023Z,7.80
2022-08-30T06:18:43.628Z,7.33
2022-08-30T06:21:20.092Z,7.27
2022-08-30T06:23:47.162Z,7.40
2022-08-30T06:26:14.295Z,7.30
2022-08-30T06:28:41.156Z,7.60
2022-08-30T06:31:09.928Z,7.70
2022-08-30T06:33:37.566Z,7.87
2022-08-30T06:36:11.135Z,6.90
2022-08-30T06:38:39.163Z,7.47
2022-08-30T06:41:07.905Z,6.80
2022-08-30T06:43:34.921Z,6.47
2022-08-30T06:46:07.214Z,6.40
2022-08-30T06:48:34.333Z,7.70
2022-08-30T06:51:01.868Z,11.50
2022-08-30T06:53:30.971Z,8.57
2022-08-30T06:56:04.553Z,7.93
2022-08-30T06:58:32.241Z,6.87
2022-08-30T07:00:59.290Z,6.23
2022-08-30T07:03:29.188Z,6.27
2022-08-30T07:05:57.477Z,6.27
2022-08-30T07:08:25.596Z,6.20
2022-08-30T07:10:54.878Z,5.50
2022-08-30T07:13:24.203Z,5.57
2022-08-30T07:15:52.435Z,6.53
2022-08-30T07:18:38.952Z,6.07
2022-08-30T07:21:12.922Z,5.57
2022-08-30T07:23:40.345Z,5.87
2022-08-30T07:26:09.870Z,5.43
2022-08-30T07:28:42.326Z,5.17
2022-08-30T07:31:10.240Z,5.23
2022-08-30T07:33:37.890Z,4.93
2022-08-30T07:36:07.219Z,6.20
2022-08-30T07:38:34.602Z,6.40
2022-08-30T07:41:01.544Z,6.03
2022-08-30T07:43:29.433Z,5.50
2022-08-30T07:46:00.412Z,5.50
2022-08-30T07:48:27.261Z,5.27
2022-08-30T07:50:59.817Z,5.87
2022-08-30T07:53:30.028Z,5.13
2022-08-30T07:55:57.209Z,6.07
2022-08-30T07:58:24.218Z,5.60
2022-08-30T08:00:51.200Z,5.77
2022-08-30T08:03:18.085Z,5.53
2022-08-30T08:05:46.161Z,5.50
2022-08-30T08:08:14.647Z,8.50
2022-08-30T08:10:43.325Z,6.97
2022-08-30T08:13:10.801Z,6.03
2022-08-30T08:15:38.617Z,5.47
2022-08-30T08:18:08.182Z,5.77
2022-08-30T08:20:35.705Z,5.83
2022-08-30T08:23:03.006Z,5.07
2022-08-30T08:25:30.602Z,5.10
2022-08-30T08:27:58.130Z,5.10
2022-08-30T08:30:25.094Z,5.37
2022-08-30T08:32:52.893Z,5.40
2022-08-30T08:35:20.315Z,5.53
2022-08-30T08:37:47.301Z,5.00
2022-08-30T08:40:18.504Z,5.63
2022-08-30T08:43:11.910Z,6.17
2022-08-30T08:45:50.530Z,5.00
2022-08-30T08:48:59.143Z,5.07
2022-08-30T08:51:50.775Z,5.43
2022-08-30T08:54:36.748Z,5.93
2022-08-30T08:57:04.020Z,5.40
2022-08-30T08:59:31.280Z,5.87
2022-08-30T09:02:01.822Z,5.73
2022-08-30T09:04:35.790Z,5.47
2022-08-30T09:07:03.854Z,5.57
2022-08-30T09:09:37.048Z,5.27
2022-08-30T09:12:06.816Z,5.77
2022-08-30T09:14:50.082Z,6.30
2022-08-30T09:17:22.604Z,5.20
2022-08-30T09:19:52.704Z,5.47
2022-08-30T09:22:31.269Z,5.20
2022-08-30T09:25:13.360Z,5.40
2022-08-30T09:27:48.437Z,5.00
2022-08-30T09:30:17.138Z,4.50
2022-08-30T09:32:54.776Z,4.70
2022-08-30T09:35:36.637Z,4.87
2022-08-30T09:38:18.431Z,4.73
2022-08-30T09:40:49.573Z,4.70
2022-08-30T09:43:28.476Z,4.90
2022-08-30T09:46:01.501Z,5.17
2022-08-30T09:48:40.767Z,4.27
2022-08-30T09:51:10.972Z,5.20
2022-08-30T09:54:07.334Z,4.70
2022-08-30T09:56:55.533Z,4.33
2022-08-30T09:59:33.338Z,5.20
2022-08-30T10:02:10.742Z,4.53
2022-08-30T10:04:49.319Z,4.40
2022-08-30T10:07:39.432Z,4.50
2022-08-30T10:10:23.421Z,4.97
2022-08-30T10:13:02.715Z,5.30
2022-08-30T10:15:40.913Z,4.27
2022-08-30T10:18:16.656Z,3.93
2022-08-30T10:21:19.318Z,4.10
2022-08-30T10:23:51.120Z,4.27
2022-08-30T10:26:38.515Z,4.23
2022-08-30T10:29:20.456Z,4.33
2022-08-30T10:31:58.457Z,4.30
2022-08-30T10:34:35.578Z,4.53
2022-08-30T10:37:16.679Z,4.47
2022-08-30T10:39:56.417Z,4.30
2022-08-30T10:42:38.059Z,4.20
2022-08-30T10:45:15.227Z,4.10
2022-08-30T10:47:51.583Z,4.33
2022-08-30T10:50:38.415Z,4.57
2022-08-30T10:53:19.837Z,4.43
2022-08-30T10:55:53.423Z,4.30
2022-08-30T10:58:20.530Z,4.77
2022-08-30T11:01:24.539Z,4.70
2022-08-30T11:04:14.211Z,4.60
2022-08-30T11:06:59.274Z,4.33
2022-08-30T11:09:58.412Z,5.00
2022-08-30T11:12:38.474Z,4.20
2022-08-30T11:15:21.566Z,4.63
2022-08-30T11:18:21.755Z,4.53
2022-08-30T11:20:53.499Z,4.70
2022-08-30T11:23:24.725Z,4.30
2022-08-30T11:25:57.674Z,4.47
2022-08-30T11:28:37.256Z,4.30
2022-08-30T11:31:24.208Z,3.77
2022-08-30T11:33:51.503Z,4.37
2022-08-30T11:36:37.443Z,4.50
2022-08-30T11:39:11.097Z,4.13
2022-08-30T11:44:34.158Z,4.57
2022-08-30T11:47:22.241Z,4.27
2022-08-30T11:50:21.998Z,4.30
2022-08-30T11:53:24.102Z,4.33
2022-08-30T11:56:13.564Z,4.77
2022-08-30T11:58:50.888Z,3.90
2022-08-30T12:01:49.663Z,4.00
2022-08-30T12:04:23.166Z,4.53
2022-08-30T12:07:04.252Z,5.03
2022-08-30T12:09:33.017Z,4.97
2022-08-30T12:12:08.229Z,5.03
2022-08-30T12:14:54.844Z,4.17
2022-08-30T12:17:43.028Z,4.43
2022-08-30T12:20:21.479Z,4.33
2022-08-30T12:22:50.234Z,4.83
2022-08-30T12:25:31.861Z,4.20
2022-08-30T12:28:12.506Z,4.60
2022-08-30T12:30:40.268Z,4.03
2022-08-30T12:33:12.216Z,4.30
2022-08-30T12:35:41.731Z,4.27
2022-08-30T12:38:18.497Z,4.40
2022-08-30T12:40:54.821Z,4.00
2022-08-30T12:43:40.747Z,4.27
2022-08-30T12:46:15.065Z,4.00
2022-08-30T12:48:43.852Z,4.03
2022-08-30T12:51:37.645Z,4.10
2022-08-30T12:54:14.843Z,4.20
2022-08-30T12:56:54.229Z,3.80
2022-08-30T12:59:56.816Z,4.27
2022-08-30T13:02:42.002Z,4.47
2022-08-30T13:05:35.739Z,3.80
2022-08-30T13:08:21.379Z,3.97
2022-08-30T13:11:02.313Z,4.27
2022-08-30T13:13:45.027Z,3.80
2022-08-30T13:16:18.716Z,4.23
2022-08-30T13:18:47.985Z,3.37
2022-08-30T13:21:23.577Z,3.80
2022-08-30T13:23:57.533Z,3.97
2022-08-30T13:26:24.790Z,3.80
2022-08-30T13:28:55.709Z,4.03
2022-08-30T13:31:22.875Z,4.97
2022-08-30T13:33:53.205Z,4.17
2022-08-30T13:36:28.111Z,3.97
2022-08-30T13:38:55.541Z,4.27
2022-08-30T13:41:22.554Z,3.80
2022-08-30T13:46:40.043Z,4.73
2022-08-30T13:52:19.971Z,4.43
2022-08-30T13:54:56.237Z,4.57
2022-08-30T14:00:19.546Z,4.27
2022-08-30T14:02:54.028Z,4.00
2022-08-30T14:05:48.780Z,4.13
2022-08-30T14:11:07.546Z,4.83
2022-08-30T14:13:34.814Z,4.37
2022-08-30T14:18:54.862Z,4.30
2022-08-30T14:21:24.397Z,4.00
2022-08-30T14:23:53.090Z,4.30
2022-08-30T14:26:32.241Z,4.83
2022-08-30T14:28:59.899Z,4.67
2022-08-30T14:31:26.884Z,4.03
2022-08-30T14:33:53.716Z,4.23
2022-08-30T14:36:20.847Z,4.50
2022-08-30T14:38:48.595Z,4.20
2022-08-30T14:41:15.797Z,4.13
2022-08-30T14:43:42.811Z,4.17
2022-08-30T14:46:10.735Z,4.00
2022-08-30T14:48:38.689Z,3.73
2022-08-30T14:51:21.013Z,4.80
2022-08-30T14:53:51.013Z,4.50
2022-08-30T14:56:20.061Z,4.63
2022-08-30T14:59:00.392Z,4.37
2022-08-30T15:01:28.675Z,4.10
2022-08-30T15:03:56.807Z,4.17
2022-08-30T15:06:24.463Z,4.13
2022-08-30T15:08:54.282Z,4.20
2022-08-30T15:11:23.280Z,4.37
2022-08-30T15:13:52.872Z,4.20
2022-08-30T15:16:27.252Z,4.27
2022-08-30T15:18:54.960Z,4.13
2022-08-30T15:21:27.043Z,4.30
2022-08-30T15:23:54.181Z,4.37
2022-08-30T15:26:21.669Z,4.50
2022-08-30T15:28:49.088Z,4.60
2022-08-30T15:31:18.813Z,4.33
2022-08-30T15:33:45.895Z,4.27
2022-08-30T15:36:13.312Z,4.43
2022-08-30T15:38:42.302Z,3.67
2022-08-30T15:41:12.456Z,4.73
2022-08-30T15:43:41.072Z,4.40
2022-08-30T15:46:19.074Z,4.20
2022-08-30T15:48:47.039Z,4.60
2022-08-30T15:51:19.234Z,4.00
2022-08-30T15:53:46.843Z,4.37
2022-08-30T15:56:14.241Z,4.60
2022-08-30T15:58:42.280Z,4.30
2022-08-30T16:01:10.257Z,4.10
2022-08-30T16:03:40.495Z,4.13
2022-08-30T16:06:32.744Z,4.40
2022-08-30T16:09:04.005Z,4.60
2022-08-30T16:11:32.016Z,4.00
2022-08-30T16:13:59.288Z,3.97
2022-08-30T16:16:26.299Z,4.30
2022-08-30T16:18:55.115Z,3.70
2022-08-30T16:21:33.982Z,3.90
2022-08-30T16:24:02.886Z,3.70
2022-08-30T16:26:32.187Z,3.83
2022-08-30T16:28:59.912Z,4.00
2022-08-30T16:31:28.574Z,3.60
2022-08-30T16:34:00.306Z,4.10
2022-08-30T16:36:32.117Z,3.90
2022-08-30T16:38:59.185Z,3.97
2022-08-30T16:41:26.685Z,3.67
2022-08-30T16:43:54.461Z,3.60
2022-08-30T16:46:27.800Z,4.33
2022-08-30T16:49:00.273Z,4.47
2022-08-30T16:51:29.139Z,3.90
2022-08-30T16:53:57.939Z,3.97
2022-08-30T16:56:27.319Z,4.30
2022-08-30T16:59:01.286Z,4.03
2022-08-30T17:01:34.993Z,4.47
2022-08-30T17:04:02.526Z,3.90
2022-08-30T17:06:29.489Z,3.83
2022-08-30T17:08:56.749Z,4.13
2022-08-30T17:11:25.182Z,4.17
2022-08-30T17:13:52.904Z,3.87
2022-08-30T17:16:27.542Z,4.40
2022-08-30T17:19:00.574Z,4.13
2022-08-30T17:21:29.409Z,3.53
2022-08-30T17:24:01.497Z,3.90
2022-08-30T17:26:31.498Z,3.97
2022-08-30T17:28:58.879Z,4.27
2022-08-30T17:31:29.137Z,3.90
2022-08-30T17:34:01.162Z,4.07
2022-08-30T17:36:31.952Z,3.73
2022-08-30T17:38:58.857Z,3.97
2022-08-30T17:41:25.753Z,4.13
2022-08-30T17:43:53.968Z,3.60
2022-08-30T17:46:21.290Z,4.07
2022-08-30T17:48:48.143Z,4.07
2022-08-30T17:51:24.920Z,4.43
2022-08-30T17:53:51.763Z,3.77
2022-08-30T17:56:18.997Z,4.33
2022-08-30T17:58:47.535Z,4.13
2022-08-30T18:01:15.579Z,4.10
2022-08-30T18:03:45.742Z,4.00
2022-08-30T18:06:13.630Z,3.90
2022-08-30T18:08:41.237Z,4.20
2022-08-30T18:11:08.749Z,3.67
2022-08-30T18:13:36.045Z,4.13
2022-08-30T18:16:04.100Z,4.00
2022-08-30T18:18:31.302Z,4.00
2022-08-30T18:20:59.010Z,4.00
2022-08-30T18:23:27.244Z,4.20
2022-08-30T18:25:59.914Z,3.73
2022-08-30T18:28:28.896Z,4.23
2022-08-30T18:30:57.127Z,4.07
2022-08-30T18:33:25.527Z,3.97
2022-08-30T18:35:53.776Z,3.80
2022-08-30T18:38:23.029Z,5.10
2022-08-30T18:40:51.785Z,4.73
2022-08-30T18:43:18.664Z,5.50
2022-08-30T18:45:51.850Z,4.90
2022-08-30T18:48:19.597Z,5.00
2022-08-30T18:50:47.392Z,5.10
2022-08-30T18:53:15.444Z,5.23
2022-08-30T18:55:55.597Z,5.60
2022-08-30T18:58:22.637Z,4.97
2022-08-30T19:00:49.841Z,5.13
2022-08-30T19:03:19.163Z,4.97
2022-08-30T19:05:46.391Z,5.00
2022-08-30T19:08:13.958Z,4.53
2022-08-30T19:10:41.281Z,5.70
2022-08-30T19:13:08.827Z,6.73
2022-08-30T19:15:35.801Z,7.13
2022-08-30T19:18:16.582Z,7.87
2022-08-30T19:20:45.614Z,9.17
2022-08-30T19:23:14.050Z,7.73
2022-08-30T19:25:42.109Z,7.63
2022-08-30T19:28:10.613Z,7.87
2022-08-30T19:30:37.441Z,8.00
2022-08-30T19:33:04.396Z,9.10
2022-08-30T19:35:32.954Z,7.47
2022-08-30T19:38:00.140Z,6.90
2022-08-30T19:40:28.023Z,7.33
2022-08-30T19:42:55.039Z,5.60
2022-08-30T19:45:23.025Z,4.30
2022-08-30T19:47:50.931Z,4.73
2022-08-30T19:50:18.652Z,4.47
2022-08-30T19:52:52.690Z,4.77
2022-08-30T19:55:23.664Z,3.67
2022-08-30T19:57:52.673Z,4.40
2022-08-30T20:00:19.644Z,4.33
2022-08-30T20:02:50.782Z,4.10
2022-08-30T20:05:18.300Z,4.20
2022-08-30T20:07:45.469Z,4.03
2022-08-30T20:10:15.318Z,4.00
2022-08-30T20:12:46.259Z,4.10
2022-08-30T20:15:16.608Z,3.97
2022-08-30T20:18:02.650Z,4.27
2022-08-30T20:20:32.263Z,3.50
2022-08-30T20:23:00.553Z,4.47
2022-08-30T20:25:29.290Z,5.30
2022-08-30T20:27:56.145Z,4.23
2022-08-30T20:30:23.032Z,3.73
2022-08-30T20:32:49.940Z,4.60
2022-08-30T20:35:17.787Z,4.20
2022-08-30T20:37:44.998Z,4.13
2022-08-30T20:40:16.003Z,4.10
2022-08-30T20:42:45.754Z,4.50
2022-08-30T20:45:16.070Z,5.03
2022-08-30T20:47:43.489Z,4.63
2022-08-30T20:50:16.004Z,4.90
2022-08-30T20:52:43.223Z,4.20
2022-08-30T20:55:11.517Z,4.83
2022-08-30T20:57:38.913Z,5.00
2022-08-30T21:00:11.130Z,4.67
2022-08-30T21:02:46.401Z,4.37
2022-08-30T21:05:15.402Z,4.60
2022-08-30T21:07:43.700Z,4.33
2022-08-30T21:10:11.763Z,4.87
2022-08-30T21:12:39.430Z,4.73
2022-08-30T21:15:34.060Z,4.63
2022-08-30T21:17:54.482Z,4.57
2022-08-30T21:20:21.391Z,5.07
2022-08-30T21:22:48.155Z,5.33
2022-08-30T21:25:15.023Z,4.87
2022-08-30T21:27:43.653Z,4.53
2022-08-30T21:30:15.514Z,4.77
2022-08-30T21:32:42.523Z,4.17
2022-08-30T21:35:28.479Z,4.80
2022-08-30T21:37:55.480Z,5.10
2022-08-30T21:40:22.523Z,4.20
2022-08-30T21:42:49.468Z,4.73
2022-08-30T21:45:16.563Z,4.17
2022-08-30T21:47:43.951Z,4.40
2022-08-30T21:50:11.986Z,4.27
2022-08-30T21:52:38.856Z,3.97
2022-08-30T21:55:05.992Z,4.53
2022-08-30T21:57:33.046Z,5.20
2022-08-30T21:59:59.946Z,4.73
2022-08-30T22:02:27.155Z,4.73
2022-08-30T22:04:54.546Z,4.77
2022-08-30T22:07:21.491Z,5.63
2022-08-30T22:09:48.379Z,4.17
2022-08-30T22:12:15.331Z,4.40
2022-08-30T22:14:42.734Z,4.40
2022-08-30T22:17:09.587Z,4.57
2022-08-30T22:19:37.010Z,4.37
2022-08-30T22:22:03.985Z,3.97
2022-08-30T22:24:32.216Z,4.60
2022-08-30T22:27:01.247Z,3.77
2022-08-30T22:29:28.995Z,3.93
2022-08-30T22:31:55.925Z,3.90
2022-08-30T22:34:23.017Z,3.83
2022-08-30T22:36:49.836Z,4.17
2022-08-30T22:39:16.818Z,4.10
2022-08-30T22:41:44.268Z,3.67
2022-08-30T22:44:11.799Z,3.70
2022-08-30T22:46:39.364Z,4.73
2022-08-30T22:49:07.788Z,3.70
2022-08-30T22:51:35.531Z,4.37
2022-08-30T22:54:03.902Z,4.10
2022-08-30T22:56:32.837Z,3.93
2022-08-30T22:58:59.644Z,3.67
2022-08-30T23:01:44.693Z,4.73
2022-08-30T23:04:12.080Z,4.10
2022-08-30T23:06:39.655Z,4.17
2022-08-30T23:09:07.513Z,3.73
2022-08-30T23:11:35.035Z,3.97
2022-08-30T23:14:03.517Z,4.17
2022-08-30T23:16:30.785Z,4.00
2022-08-30T23:18:57.764Z,4.20
2022-08-30T23:21:28.540Z,3.83
2022-08-30T23:24:14.990Z,4.27
2022-08-30T23:27:03.110Z,4.23
2022-08-30T23:29:49.462Z,4.13
2022-08-30T23:32:35.029Z,4.07
2022-08-30T23:35:20.668Z,4.30
2022-08-30T23:38:16.265Z,4.33
2022-08-30T23:41:01.590Z,4.47
2022-08-30T23:43:47.019Z,4.03
2022-08-30T23:46:32.499Z,4.07
2022-08-30T23:49:17.931Z,4.27
2022-08-30T23:52:03.299Z,4.30
2022-08-30T23:54:48.957Z,4.27
2022-08-30T23:57:34.276Z,4.43
